Time;durP1;ratioP1;P1;durP2;ratioP2;P2;SDS_P1;SDS_P2;PMS_P1;PMS_P2;Temp;Humidity;BMP_temperature;BMP_pressure;BME280_temperature;BME280_humidity;BME280_pressure;Samples;Min_cycle;Max_cycle;Signal;HPM_P1;HPM_P2
2023/03/11 00:01:12;;;;;;;60.90;25.42;;;;;;;1.50;82.75;98694.22;5005152;28;20049;-59
2023/03/11 00:03:37;;;;;;;60.42;27.73;;;;;;;1.53;82.20;98695.81;5011259;28;20060;-55
2023/03/11 00:06:03;;;;;;;57.20;24.45;;;;;;;1.54;82.32;98704.44;5007719;28;20079;-59
2023/03/11 00:08:29;;;;;;;49.53;22.60;;;;;;;1.50;82.21;98699.41;5006766;28;20030;-57
2023/03/11 00:10:59;;;;;;;38.53;17.15;;;;;;;1.41;82.95;98715.47;5008779;28;20030;-64
2023/03/11 00:13:25;;;;;;;49.13;20.95;;;;;;;1.39;82.69;98706.06;5007775;28;20025;-57
2023/03/11 00:15:55;;;;;;;48.58;21.27;;;;;;;1.36;82.71;98707.06;5004701;28;20057;-63
2023/03/11 00:18:25;;;;;;;49.15;20.17;;;;;;;1.39;82.40;98699.16;5008078;28;20322;-57
2023/03/11 00:20:53;;;;;;;42.28;19.35;;;;;;;1.39;82.46;98711.25;5010949;28;20037;-63
2023/03/11 00:23:18;;;;;;;52.05;21.25;;;;;;;1.40;82.50;98707.75;4998735;28;20021;-57
2023/03/11 00:25:45;;;;;;;54.22;23.77;;;;;;;1.42;82.59;98719.72;5010532;28;20052;-58
2023/03/11 00:28:11;;;;;;;52.00;22.40;;;;;;;1.42;82.17;98724.91;5000757;28;20042;-55
2023/03/11 00:30:39;;;;;;;46.55;20.90;;;;;;;1.43;82.16;98728.31;5006043;28;20104;-57
2023/03/11 00:33:05;;;;;;;49.67;22.95;;;;;;;1.41;82.39;98741.38;5012503;28;20034;-59
2023/03/11 00:35:32;;;;;;;42.97;19.27;;;;;;;1.37;81.99;98734.66;5005619;28;20038;-59
2023/03/11 00:38:01;;;;;;;56.08;23.70;;;;;;;1.36;81.89;98741.59;5005947;28;20029;-64
2023/03/11 00:40:29;;;;;;;53.22;23.02;;;;;;;1.34;82.24;98737.41;5014389;28;20032;-65
2023/03/11 00:42:55;;;;;;;48.05;20.48;;;;;;;1.31;82.05;98745.34;5011696;28;20030;-61
2023/03/11 00:45:21;;;;;;;74.15;27.77;;;;;;;1.28;82.04;98742.94;5008693;28;20167;-59
2023/03/11 00:47:47;;;;;;;56.83;24.75;;;;;;;1.29;81.92;98741.97;4993515;28;20026;-66
2023/03/11 00:50:19;;;;;;;67.57;26.75;;;;;;;1.29;81.98;98760.13;5002254;28;20523;-56
2023/03/11 00:52:46;;;;;;;76.10;27.77;;;;;;;1.28;82.19;98763.66;5012509;28;20040;-62
2023/03/11 00:55:14;;;;;;;61.38;24.33;;;;;;;1.24;81.83;98765.53;5013996;28;20509;-59
2023/03/11 00:57:41;;;;;;;74.03;29.88;;;;;;;1.19;81.96;98773.56;5017705;28;20034;-60
2023/03/11 01:00:10;;;;;;;76.80;29.23;;;;;;;1.17;82.18;98775.38;5015430;28;20037;-57
2023/03/11 01:02:36;;;;;;;77.63;28.92;;;;;;;1.12;82.12;98776.53;5016870;28;20026;-60
2023/03/11 01:05:02;;;;;;;68.90;26.75;;;;;;;1.08;82.94;98775.84;5010217;28;20038;-56
2023/03/11 01:07:28;;;;;;;66.18;26.80;;;;;;;1.03;82.46;98785.59;5013017;28;20500;-58
2023/03/11 01:09:53;;;;;;;72.57;30.23;;;;;;;0.96;82.83;98786.84;5019309;28;20022;-63
2023/03/11 01:12:19;;;;;;;45.80;19.23;;;;;;;0.92;82.94;98806.84;5004687;28;20040;-60
2023/03/11 01:14:45;;;;;;;55.60;21.65;;;;;;;0.90;83.21;98809.53;5011982;28;20060;-61
2023/03/11 01:17:11;;;;;;;53.85;21.95;;;;;;;0.86;82.99;98815.75;5016035;28;20441;-60
2023/03/11 01:19:36;;;;;;;39.63;18.52;;;;;;;0.83;83.56;98828.84;5003396;28;20087;-64
2023/03/11 01:22:02;;;;;;;53.50;22.88;;;;;;;0.80;83.48;98828.16;4999051;28;20524;-63
2023/03/11 01:24:27;;;;;;;44.58;21.88;;;;;;;0.72;84.04;98837.16;5015706;28;20377;-61
2023/03/11 01:26:52;;;;;;;37.65;18.90;;;;;;;0.67;84.47;98853.81;4997063;28;20054;-66
2023/03/11 01:29:18;;;;;;;44.67;21.77;;;;;;;0.65;83.96;98842.69;5002024;28;20037;-61
2023/03/11 01:31:43;;;;;;;30.05;16.05;;;;;;;0.63;84.53;98849.69;5000813;28;20034;-62
2023/03/11 01:34:09;;;;;;;37.40;18.88;;;;;;;0.60;84.15;98859.28;5012408;28;20037;-58
2023/03/11 01:36:34;;;;;;;32.47;15.38;;;;;;;0.56;84.51;98860.31;5028342;28;20040;-60
2023/03/11 01:38:59;;;;;;;37.15;18.10;;;;;;;0.55;84.85;98870.75;5004321;28;20036;-59
2023/03/11 01:41:25;;;;;;;27.17;13.05;;;;;;;0.53;84.63;98886.34;5012728;28;20063;-62
2023/03/11 01:43:53;;;;;;;34.35;16.45;;;;;;;0.52;85.19;98891.59;5007816;28;20030;-62
2023/03/11 01:46:35;;;;;;;24.80;12.10;;;;;;;0.47;85.25;98894.41;5011081;28;20030;-62
2023/03/11 01:49:03;;;;;;;26.65;14.07;;;;;;;0.45;85.28;98886.69;5009688;28;20041;-62
2023/03/11 01:51:54;;;;;;;15.52;8.57;;;;;;;0.42;85.53;98891.19;5016378;28;20465;-61
2023/03/11 01:54:24;;;;;;;31.27;15.43;;;;;;;0.33;85.75;98897.59;5010978;28;20141;-60
2023/03/11 01:56:51;;;;;;;30.20;14.05;;;;;;;0.27;85.92;98898.72;5008957;28;20040;-61
2023/03/11 01:59:21;;;;;;;22.38;11.65;;;;;;;0.23;86.69;98915.28;5011644;28;20034;-58
2023/03/11 02:02:01;;;;;;;20.58;12.07;;;;;;;0.16;86.90;98913.88;5010796;28;20030;-59
2023/03/11 02:04:28;;;;;;;23.58;11.50;;;;;;;0.13;87.54;98911.44;5008267;28;20156;-58
2023/03/11 02:06:55;;;;;;;19.20;9.90;;;;;;;0.12;87.77;98915.78;5003985;28;20036;-59
2023/03/11 02:09:23;;;;;;;18.58;9.77;;;;;;;0.13;87.50;98922.63;5006650;28;20068;-56
2023/03/11 02:11:49;;;;;;;16.58;8.43;;;;;;;0.13;88.31;98940.75;5014414;28;20022;-54
2023/03/11 02:14:16;;;;;;;16.85;9.55;;;;;;;0.15;88.08;98956.19;5006639;28;20471;-53
2023/03/11 02:16:41;;;;;;;15.95;7.97;;;;;;;0.17;87.63;98954.38;5012721;28;20079;-53
2023/03/11 02:19:28;;;;;;;18.83;10.98;;;;;;;0.18;87.36;98958.66;5010758;28;20022;-54
2023/03/11 02:21:55;;;;;;;16.10;8.65;;;;;;;0.21;88.03;98963.69;5007088;28;20022;-54
2023/03/11 02:24:29;;;;;;;17.60;8.50;;;;;;;0.25;87.27;98961.81;5003152;28;20030;-62
2023/03/11 02:27:02;;;;;;;15.23;8.63;;;;;;;0.28;87.90;98977.19;5010490;28;20038;-61
2023/03/11 02:29:27;;;;;;;;;;;;;;;0.29;88.46;98974.53;4996320;28;20037;-54
2023/03/11 02:31:58;;;;;;;15.25;7.57;;;;;;;0.34;88.77;98976.91;5010748;28;19995;-55
2023/03/11 02:34:27;;;;;;;15.35;8.73;;;;;;;0.36;88.33;98980.28;5007268;28;20056;-54
2023/03/11 02:36:52;;;;;;;14.93;8.32;;;;;;;0.41;89.14;98993.00;5011126;28;20048;-52
2023/03/11 02:39:34;;;;;;;9.65;5.53;;;;;;;0.41;89.24;99004.22;5009286;28;20061;-55
2023/03/11 02:42:04;;;;;;;9.50;4.63;;;;;;;0.45;88.98;99004.91;5007364;28;20042;-55
2023/03/11 02:44:30;;;;;;;11.77;6.15;;;;;;;0.44;88.75;99011.84;4998112;28;20344;-52
2023/03/11 02:46:56;;;;;;;12.48;6.28;;;;;;;0.48;89.00;99009.09;5007744;28;20061;-55
2023/03/11 02:49:22;;;;;;;11.70;5.90;;;;;;;0.50;88.75;99023.69;5008418;28;20044;-55
2023/03/11 02:51:47;;;;;;;8.10;4.25;;;;;;;0.53;88.54;99027.88;5009005;28;20452;-55
2023/03/11 02:54:13;;;;;;;7.55;4.00;;;;;;;0.53;89.10;99033.88;5003063;28;20065;-51
2023/03/11 02:56:38;;;;;;;6.70;4.05;;;;;;;0.52;88.96;99036.53;5005300;28;20431;-57
2023/03/11 02:59:04;;;;;;;5.30;2.95;;;;;;;0.49;88.82;99021.13;5001763;28;20030;-57
2023/03/11 03:01:29;;;;;;;6.93;3.72;;;;;;;0.48;89.35;99040.16;5000461;28;20028;-60
2023/03/11 03:03:55;;;;;;;4.40;2.45;;;;;;;0.48;89.55;99066.03;5008439;28;20026;-52
2023/03/11 03:06:21;;;;;;;5.40;2.80;;;;;;;0.48;89.45;99060.88;5009016;28;20080;-52
2023/03/11 03:08:46;;;;;;;4.60;2.58;;;;;;;0.49;89.15;99058.22;5009947;28;20061;-52
2023/03/11 03:11:12;;;;;;;4.55;2.47;;;;;;;0.49;89.68;99073.75;5008148;28;20388;-53
2023/03/11 03:13:37;;;;;;;4.90;3.10;;;;;;;0.50;89.85;99110.81;5007382;28;20064;-53
2023/03/11 03:16:03;;;;;;;5.90;2.72;;;;;;;0.52;89.51;99104.69;5008287;28;20092;-53
2023/03/11 03:18:28;;;;;;;3.78;2.13;;;;;;;0.53;89.78;99116.69;5003158;28;20041;-59
2023/03/11 03:20:54;;;;;;;6.38;2.80;;;;;;;0.54;90.00;99115.78;5009042;28;20042;-56
2023/03/11 03:23:19;;;;;;;4.47;2.33;;;;;;;0.55;89.43;99135.59;5009037;28;20076;-51
2023/03/11 03:25:45;;;;;;;4.30;2.40;;;;;;;0.53;89.11;99141.75;5011180;28;20453;-55
2023/03/11 03:28:12;;;;;;;5.93;2.92;;;;;;;0.56;89.21;99159.75;5006056;28;21388;-57
2023/03/11 03:30:38;;;;;;;7.80;2.25;;;;;;;0.55;89.68;99171.00;5006961;28;20034;-54
2023/03/11 03:33:04;;;;;;;4.47;2.42;;;;;;;0.57;89.62;99185.56;5009925;28;20029;-51
2023/03/11 03:35:30;;;;;;;3.67;2.33;;;;;;;0.58;89.85;99163.94;5002309;28;20041;-55
2023/03/11 03:37:56;;;;;;;3.67;2.35;;;;;;;0.60;89.81;99184.59;5009025;28;20083;-50
2023/03/11 03:40:21;;;;;;;4.38;2.00;;;;;;;0.59;89.41;99201.88;5008727;28;20030;-51
2023/03/11 03:42:47;;;;;;;3.05;1.88;;;;;;;0.59;89.52;99206.22;5010642;28;20027;-49
2023/03/11 03:45:12;;;;;;;4.82;2.33;;;;;;;0.60;89.53;99208.72;5001583;28;20038;-50
2023/03/11 03:47:38;;;;;;;2.80;1.77;;;;;;;0.59;89.75;99214.81;5007970;28;20563;-52
2023/03/11 03:50:06;;;;;;;4.35;2.30;;;;;;;0.62;89.42;99224.19;5006846;28;20038;-49
2023/03/11 03:52:31;;;;;;;4.22;1.90;;;;;;;0.62;89.89;99228.53;5003366;28;20408;-48
2023/03/11 03:54:57;;;;;;;2.75;2.03;;;;;;;0.62;89.93;99242.31;5005719;28;20037;-48
2023/03/11 03:57:22;;;;;;;9.10;2.65;;;;;;;0.60;89.69;99244.97;5000271;28;20030;-50
2023/03/11 03:59:48;;;;;;;5.88;2.63;;;;;;;0.60;89.37;99249.31;5005481;28;20026;-49
2023/03/11 04:02:13;;;;;;;4.32;1.98;;;;;;;0.54;89.67;99271.09;5002033;28;20751;-52
2023/03/11 04:04:39;;;;;;;3.70;2.55;;;;;;;0.53;89.15;99277.16;5009065;28;20054;-53
2023/03/11 04:07:04;;;;;;;6.82;2.78;;;;;;;0.53;89.23;99287.53;5005723;28;20030;-54
2023/03/11 04:09:31;;;;;;;6.32;2.58;;;;;;;0.54;90.04;99294.38;5009991;28;20105;-50
2023/03/11 04:11:56;;;;;;;5.15;2.85;;;;;;;0.51;89.58;99297.13;5008440;28;20033;-50
2023/03/11 04:14:22;;;;;;;5.47;2.75;;;;;;;0.53;89.81;99297.88;4998712;28;20061;-50
2023/03/11 04:16:47;;;;;;;3.03;1.98;;;;;;;0.52;90.04;99329.88;5008092;28;20029;-50
2023/03/11 04:19:12;;;;;;;10.15;3.17;;;;;;;0.51;89.26;99310.06;5007379;28;20026;-55
2023/03/11 04:21:38;;;;;;;6.70;2.95;;;;;;;0.51;89.34;99310.06;5007570;28;20045;-52
2023/03/11 04:24:04;;;;;;;8.93;3.35;;;;;;;0.49;89.67;99327.41;5002090;28;20046;-55
2023/03/11 04:26:29;;;;;;;8.98;3.60;;;;;;;0.47;89.59;99338.69;5000778;28;20074;-55
2023/03/11 04:28:54;;;;;;;6.75;3.63;;;;;;;0.44;89.62;99334.50;5007856;28;20033;-59
2023/03/11 04:31:20;;;;;;;8.82;2.97;;;;;;;0.39;89.33;99363.13;5011361;28;20034;-59
2023/03/11 04:33:45;;;;;;;9.05;3.60;;;;;;;0.38;89.77;99352.84;5013520;28;20911;-59
2023/03/11 04:36:12;;;;;;;6.65;3.85;;;;;;;0.40;89.84;99361.38;5004104;28;20485;-59
2023/03/11 04:38:37;;;;;;;6.45;3.30;;;;;;;0.40;90.03;99380.34;5006998;28;20025;-56
2023/03/11 04:41:05;;;;;;;5.43;3.42;;;;;;;0.37;89.62;99389.97;5006353;28;20038;-62
2023/03/11 04:43:31;;;;;;;5.38;2.90;;;;;;;0.35;90.08;99412.47;5000696;28;20091;-57
2023/03/11 04:45:57;;;;;;;6.00;2.80;;;;;;;0.37;90.01;99411.50;5001917;28;20033;-57
2023/03/11 04:48:23;;;;;;;12.02;4.95;;;;;;;0.38;89.70;99404.63;5006762;28;20034;-54
2023/03/11 04:50:49;;;;;;;4.47;2.38;;;;;;;0.37;90.05;99421.88;5010878;28;20026;-52
2023/03/11 04:53:15;;;;;;;8.75;4.10;;;;;;;0.36;89.72;99425.34;5010438;28;20139;-55
2023/03/11 04:55:40;;;;;;;7.10;3.47;;;;;;;0.35;89.72;99428.00;5002225;28;20484;-57
2023/03/11 04:58:06;;;;;;;5.97;4.13;;;;;;;0.35;89.66;99459.06;5003807;28;20026;-54
2023/03/11 05:00:31;;;;;;;6.90;3.63;;;;;;;0.38;89.88;99440.84;5004610;28;20176;-59
2023/03/11 05:02:56;;;;;;;10.40;4.07;;;;;;;0.38;89.94;99448.59;5000976;28;20030;-55
2023/03/11 05:05:22;;;;;;;7.10;3.80;;;;;;;0.39;90.16;99461.47;5002411;28;20034;-55
2023/03/11 05:07:48;;;;;;;9.05;4.57;;;;;;;0.40;90.00;99455.41;5004248;28;20034;-58
2023/03/11 05:10:20;;;;;;;11.93;4.00;;;;;;;0.40;89.75;99480.44;5007457;28;20377;-54
2023/03/11 05:12:46;;;;;;;8.68;4.97;;;;;;;0.38;89.44;99469.31;5006721;28;20108;-57
2023/03/11 05:15:12;;;;;;;4.00;2.45;;;;;;;0.38;89.94;99496.03;5001895;28;20030;-51
2023/03/11 05:17:37;;;;;;;6.90;3.97;;;;;;;0.38;90.01;99480.50;5009090;28;20030;-59
2023/03/11 05:20:06;;;;;;;5.95;3.55;;;;;;;0.38;89.68;99496.03;5003707;28;20042;-52
2023/03/11 05:22:32;;;;;;;9.13;3.85;;;;;;;0.38;89.71;99493.44;5001744;28;20034;-55
2023/03/11 05:24:57;;;;;;;6.40;3.83;;;;;;;0.41;89.49;99505.41;5008680;28;20048;-56
2023/03/11 05:27:23;;;;;;;11.13;3.33;;;;;;;0.40;89.52;99506.31;5011321;28;20033;-55
2023/03/11 05:29:48;;;;;;;10.32;3.25;;;;;;;0.40;89.23;99520.09;4998619;28;20049;-54
2023/03/11 05:32:14;;;;;;;8.68;4.43;;;;;;;0.42;89.33;99520.03;5007118;28;20117;-57
2023/03/11 05:34:40;;;;;;;8.65;4.18;;;;;;;0.43;89.68;99529.50;5005979;28;20534;-53
2023/03/11 05:37:06;;;;;;;10.20;4.40;;;;;;;0.45;89.54;99540.66;5012108;28;20523;-52
2023/03/11 05:39:32;;;;;;;9.27;4.32;;;;;;;0.42;89.37;99548.50;5010705;28;20026;-55
2023/03/11 05:41:57;;;;;;;10.68;4.63;;;;;;;0.41;89.70;99549.41;5016206;28;20022;-56
2023/03/11 05:44:23;;;;;;;11.60;4.28;;;;;;;0.42;89.67;99559.72;5001766;28;20030;-53
2023/03/11 05:46:49;;;;;;;11.45;4.55;;;;;;;0.42;89.25;99559.72;5000067;28;20025;-56
2023/03/11 05:49:14;;;;;;;8.95;4.35;;;;;;;0.38;89.15;99570.25;5009953;28;20037;-53
2023/03/11 05:51:39;;;;;;;9.98;4.55;;;;;;;0.35;88.73;99588.44;5013947;28;20590;-55
2023/03/11 05:54:13;;;;;;;8.07;3.60;;;;;;;0.35;89.05;99598.81;5011205;28;20030;-56
2023/03/11 05:56:40;;;;;;;9.13;3.90;;;;;;;0.33;89.14;99596.25;5011724;28;20869;-57
2023/03/11 05:59:06;;;;;;;6.15;3.42;;;;;;;0.33;88.64;99605.78;5006209;28;20439;-56
2023/03/11 06:01:31;;;;;;;7.90;3.60;;;;;;;0.35;88.55;99609.16;5001888;28;20046;-56
2023/03/11 06:03:56;;;;;;;7.78;4.05;;;;;;;0.38;88.63;99612.47;5006430;28;20042;-56
2023/03/11 06:06:22;;;;;;;9.88;3.15;;;;;;;0.36;88.96;99626.38;5009919;28;20038;-53
2023/03/11 06:08:49;;;;;;;7.03;4.07;;;;;;;0.40;89.02;99633.13;5013113;28;20026;-54
2023/03/11 06:11:15;;;;;;;11.98;4.53;;;;;;;0.42;88.99;99636.50;5012720;28;20061;-56
2023/03/11 06:13:41;;;;;;;7.05;4.03;;;;;;;0.42;88.81;99647.72;5005122;28;20044;-59
2023/03/11 06:16:07;;;;;;;10.43;4.38;;;;;;;0.43;88.65;99651.13;5002607;28;20034;-56
2023/03/11 06:18:33;;;;;;;10.43;3.90;;;;;;;0.46;88.70;99653.63;5005469;28;20540;-58
2023/03/11 06:21:00;;;;;;;10.75;4.07;;;;;;;0.52;89.03;99663.78;5011248;28;20057;-56
2023/03/11 06:23:27;;;;;;;8.10;4.10;;;;;;;0.53;88.89;99670.63;5011110;28;20147;-59
2023/03/11 06:25:56;;;;;;;9.55;4.35;;;;;;;0.60;89.00;99672.13;5014991;28;20034;-57
2023/03/11 06:28:21;;;;;;;10.75;4.90;;;;;;;0.63;88.97;99665.16;5003329;28;20528;-58
2023/03/11 06:30:47;;;;;;;9.73;4.40;;;;;;;0.69;88.92;99675.28;5003595;28;20104;-54
2023/03/11 06:33:13;;;;;;;8.40;4.43;;;;;;;0.74;88.66;99683.75;5008325;28;20034;-55
2023/03/11 06:35:40;;;;;;;4.18;2.55;;;;;;;0.80;88.82;99687.88;5012208;28;20139;-57
2023/03/11 06:38:06;;;;;;;9.32;4.85;;;;;;;0.82;88.58;99707.69;5013540;28;20392;-54
2023/03/11 06:40:32;;;;;;;9.38;4.50;;;;;;;0.85;88.12;99706.72;5011294;28;20493;-58
2023/03/11 06:42:57;;;;;;;10.93;4.18;;;;;;;0.85;87.93;99711.91;5004422;28;20041;-56
2023/03/11 06:45:23;;;;;;;8.05;3.70;;;;;;;0.84;88.00;99720.56;5000747;28;20037;-59
2023/03/11 06:47:48;;;;;;;9.82;4.88;;;;;;;0.85;87.82;99728.25;5006488;28;20047;-57
2023/03/11 06:50:14;;;;;;;13.13;4.95;;;;;;;0.83;87.79;99745.59;5013194;28;20671;-55
2023/03/11 06:52:40;;;;;;;10.65;5.10;;;;;;;0.87;87.70;99757.56;5010658;28;20037;-56
2023/03/11 06:55:06;;;;;;;8.52;4.80;;;;;;;0.85;87.53;99754.16;4992997;28;20065;-55
2023/03/11 06:57:32;;;;;;;10.00;5.18;;;;;;;0.83;87.54;99761.13;5008397;28;20029;-61
2023/03/11 06:59:57;;;;;;;13.52;5.72;;;;;;;0.83;87.37;99766.31;5004383;28;20033;-57
2023/03/11 07:02:23;;;;;;;14.02;5.75;;;;;;;0.85;87.62;99768.88;5001690;28;20038;-53
2023/03/11 07:04:48;;;;;;;9.23;4.65;;;;;;;0.88;88.06;99776.56;5001641;28;20072;-55
2023/03/11 07:07:14;;;;;;;13.88;5.80;;;;;;;0.95;87.83;99772.00;5010805;28;20119;-55
2023/03/11 07:09:39;;;;;;;11.45;5.57;;;;;;;1.01;87.58;99776.97;5011103;28;20046;-58
2023/03/11 07:12:05;;;;;;;12.65;5.85;;;;;;;1.08;87.65;99780.19;5008324;28;20478;-56
2023/03/11 07:14:31;;;;;;;15.38;5.82;;;;;;;1.12;87.59;99789.56;4998692;28;20481;-59
2023/03/11 07:17:05;;;;;;;9.07;5.43;;;;;;;1.16;87.28;99794.59;5007476;28;20042;-57
2023/03/11 07:19:31;;;;;;;7.55;4.38;;;;;;;1.17;86.44;99808.41;5009169;28;20029;-57
2023/03/11 07:21:56;;;;;;;7.85;4.15;;;;;;;1.10;85.74;99820.72;5002770;28;20025;-59
2023/03/11 07:24:22;;;;;;;13.43;4.95;;;;;;;1.10;85.82;99812.09;5007365;28;20029;-56
2023/03/11 07:26:47;;;;;;;8.45;4.53;;;;;;;1.07;85.51;99826.00;5003576;28;20045;-53
2023/03/11 07:29:12;;;;;;;7.80;4.35;;;;;;;0.97;84.16;99827.22;4999807;28;20033;-55
2023/03/11 07:31:38;;;;;;;10.98;5.57;;;;;;;1.05;85.27;99830.38;5009382;28;20033;-55
2023/03/11 07:34:10;;;;;;;13.43;5.47;;;;;;;1.03;84.29;99839.94;5009528;28;20034;-55
2023/03/11 07:36:37;;;;;;;10.77;4.80;;;;;;;1.07;84.31;99857.09;5013293;28;20022;-53
2023/03/11 07:39:04;;;;;;;8.30;4.03;;;;;;;1.06;83.87;99839.84;4992924;28;20059;-53
2023/03/11 07:41:32;;;;;;;8.77;3.88;;;;;;;1.11;84.56;99853.50;5009712;28;20056;-54
2023/03/11 07:44:01;;;;;;;9.40;4.13;;;;;;;1.17;84.62;99855.06;5004487;28;20036;-53
2023/03/11 07:46:28;;;;;;;12.15;4.20;;;;;;;1.24;84.29;99873.84;5007041;28;20030;-53
2023/03/11 07:48:54;;;;;;;15.40;5.82;;;;;;;1.27;83.54;99871.16;5008519;28;20026;-54
2023/03/11 07:51:25;;;;;;;12.82;4.80;;;;;;;1.25;83.27;99871.19;5008097;28;20054;-58
2023/03/11 07:53:53;;;;;;;9.13;3.53;;;;;;;1.23;82.84;99878.16;4998010;28;20030;-56
2023/03/11 07:56:21;;;;;;;10.13;3.75;;;;;;;1.16;82.86;99887.88;5007779;28;20344;-58
2023/03/11 07:58:47;;;;;;;13.57;4.57;;;;;;;1.26;84.29;99887.59;5006222;28;20021;-55
2023/03/11 08:01:18;;;;;;;12.23;4.75;;;;;;;1.27;83.91;99894.47;5008127;28;20041;-57
2023/03/11 08:03:46;;;;;;;6.65;4.38;;;;;;;1.24;83.42;99910.13;5003571;28;20026;-57
2023/03/11 08:06:14;;;;;;;9.90;5.35;;;;;;;1.25;83.49;99917.84;4998698;28;20045;-58
2023/03/11 08:08:40;;;;;;;11.02;5.22;;;;;;;1.31;83.54;99924.56;5004817;28;20038;-56
2023/03/11 08:11:06;;;;;;;10.32;4.65;;;;;;;1.27;83.54;99918.63;5006179;28;20022;-57
2023/03/11 08:13:32;;;;;;;7.32;4.28;;;;;;;1.17;82.63;99928.44;5005715;28;20034;-57
2023/03/11 08:15:57;;;;;;;8.05;3.97;;;;;;;1.10;83.56;99945.09;5004003;28;20041;-58
2023/03/11 08:18:23;;;;;;;12.77;5.00;;;;;;;1.02;83.38;99947.94;5007223;28;20029;-58
2023/03/11 08:20:48;;;;;;;9.68;4.75;;;;;;;1.01;83.81;99946.22;5008138;28;20075;-58
2023/03/11 08:23:14;;;;;;;5.20;2.75;;;;;;;0.99;83.33;99970.47;4995829;28;20034;-55
2023/03/11 08:25:40;;;;;;;6.18;3.15;;;;;;;0.93;83.51;99974.09;5007958;28;20057;-59
2023/03/11 08:28:07;;;;;;;10.13;5.10;;;;;;;0.92;83.67;99964.63;5003965;28;20038;-56
2023/03/11 08:30:33;;;;;;;10.88;4.65;;;;;;;0.87;83.48;99977.72;5009251;28;20094;-59
2023/03/11 08:32:59;;;;;;;8.50;3.80;;;;;;;0.75;82.88;99976.38;5006569;28;20046;-56
2023/03/11 08:35:25;;;;;;;4.47;2.72;;;;;;;0.67;83.65;99998.19;5006385;28;20070;-58
2023/03/11 08:37:51;;;;;;;7.93;4.28;;;;;;;0.63;83.80;99983.63;5001439;28;20021;-58
2023/03/11 08:40:19;;;;;;;11.52;5.35;;;;;;;0.61;84.75;99991.44;5002307;28;20095;-58
2023/03/11 08:42:44;;;;;;;8.13;3.90;;;;;;;0.61;84.68;99988.84;5007663;28;20045;-56
2023/03/11 08:45:10;;;;;;;13.88;3.08;;;;;;;0.58;84.29;99979.44;5003023;28;20401;-56
2023/03/11 08:47:36;;;;;;;7.60;4.28;;;;;;;0.63;84.49;99996.59;5003496;28;20029;-58
2023/03/11 08:50:08;;;;;;;7.55;4.15;;;;;;;0.65;83.75;99998.22;4993171;28;20038;-60
2023/03/11 08:52:33;;;;;;;12.13;4.47;;;;;;;0.63;83.40;100014.72;4996705;28;20023;-57
2023/03/11 08:54:59;;;;;;;14.30;3.65;;;;;;;0.68;83.97;100038.75;4997598;28;21336;-61
2023/03/11 08:57:24;;;;;;;7.13;3.97;;;;;;;0.69;84.18;100043.88;4985901;28;20045;-60
2023/03/11 08:59:50;;;;;;;8.27;2.88;;;;;;;0.70;83.98;100031.75;4998202;28;20029;-60
2023/03/11 09:02:16;;;;;;;6.95;3.97;;;;;;;0.72;83.36;100068.81;4992917;28;20085;-58
2023/03/11 09:04:41;;;;;;;6.97;3.63;;;;;;;0.78;83.58;100034.13;5000093;28;20039;-59
2023/03/11 09:07:07;;;;;;;6.75;3.88;;;;;;;0.79;83.95;100047.03;5004191;28;20026;-62
2023/03/11 09:09:33;;;;;;;10.70;5.18;;;;;;;0.82;82.80;100048.69;5002489;28;20053;-58
2023/03/11 09:11:58;;;;;;;10.80;4.55;;;;;;;0.87;83.79;100068.38;5008279;28;20505;-56
2023/03/11 09:14:24;;;;;;;7.05;4.55;;;;;;;0.93;84.29;100076.88;5004441;28;20034;-61
2023/03/11 09:16:49;;;;;;;9.32;5.00;;;;;;;0.96;84.50;100082.00;5007372;28;20040;-61
2023/03/11 09:19:15;;;;;;;8.65;5.07;;;;;;;0.95;84.52;100068.16;4988028;28;20034;-60
2023/03/11 09:21:40;;;;;;;8.88;4.22;;;;;;;0.98;84.97;100098.34;5002154;28;20088;-55
2023/03/11 09:24:06;;;;;;;7.60;3.67;;;;;;;0.99;84.44;100087.06;4991462;28;20026;-59
2023/03/11 09:26:32;;;;;;;6.80;3.67;;;;;;;1.01;84.22;100103.41;4997413;28;20080;-61
2023/03/11 09:28:57;;;;;;;5.53;3.40;;;;;;;0.97;83.42;100094.06;5002856;28;20030;-61
2023/03/11 09:31:23;;;;;;;7.32;3.25;;;;;;;0.96;83.36;100095.78;5006987;28;20022;-57
2023/03/11 09:33:51;;;;;;;8.05;4.07;;;;;;;0.98;84.13;100100.94;4988831;28;20041;-58
2023/03/11 09:36:18;;;;;;;7.55;4.07;;;;;;;0.99;83.77;100098.28;5002415;28;20089;-62
2023/03/11 09:38:44;;;;;;;6.28;3.40;;;;;;;0.99;82.49;100108.66;5001403;28;20029;-62
2023/03/11 09:41:16;;;;;;;8.48;4.50;;;;;;;1.03;83.59;100135.31;5003141;28;20113;-62
2023/03/11 09:44:09;;;;;;;6.70;3.80;;;;;;;1.02;83.27;100115.47;5007044;28;20531;-62
2023/03/11 09:46:57;;;;;;;5.82;3.10;;;;;;;1.03;82.03;100127.53;5000974;28;20018;-57
2023/03/11 09:49:41;;;;;;;8.07;3.33;;;;;;;1.05;82.65;100138.72;4974862;28;20041;-62
2023/03/11 09:52:40;;;;;;;8.65;4.50;;;;;;;1.12;83.28;100140.25;5001178;28;20092;-62
2023/03/11 09:55:25;;;;;;;9.63;4.40;;;;;;;1.14;82.79;100147.97;4981090;28;20183;-59
2023/03/11 09:57:52;;;;;;;5.45;3.13;;;;;;;1.18;83.14;100163.38;5006991;28;20156;-62
2023/03/11 10:00:20;;;;;;;4.60;2.75;;;;;;;1.20;82.71;100142.63;5001357;28;20084;-59
2023/03/11 10:02:47;;;;;;;6.57;3.53;;;;;;;1.21;82.57;100150.34;4997902;28;20061;-61
2023/03/11 10:05:20;;;;;;;6.45;3.85;;;;;;;1.23;82.85;100150.28;5008100;28;20399;-64
2023/03/11 10:07:52;;;;;;;5.40;3.60;;;;;;;1.25;82.15;100160.63;5005265;28;20087;-61
2023/03/11 10:10:18;;;;;;;4.88;3.25;;;;;;;1.28;82.12;100165.75;5011238;28;20022;-62
2023/03/11 10:13:06;;;;;;;8.00;3.28;;;;;;;1.31;81.86;100186.38;4998043;28;20676;-62
2023/03/11 10:15:42;;;;;;;22.98;7.22;;;;;;;1.32;81.54;100164.75;4995737;28;20622;-63
2023/03/11 10:18:56;;;;;;;7.38;3.63;;;;;;;1.33;80.18;100194.94;5009242;28;20040;-62
2023/03/11 10:21:45;;;;;;;10.48;4.50;;;;;;;1.40;80.66;100190.44;4989425;28;20042;-61
2023/03/11 10:24:48;;;;;;;8.85;3.92;;;;;;;1.45;80.55;100198.94;5007453;28;20068;-62
2023/03/11 10:27:30;;;;;;;5.82;3.45;;;;;;;1.57;80.33;100201.19;5000108;28;20117;-62
2023/03/11 10:30:01;;;;;;;10.27;3.73;;;;;;;1.55;77.86;100200.38;4993531;28;20046;-64
2023/03/11 10:32:41;;;;;;;5.20;3.47;;;;;;;1.63;79.94;100223.50;5000119;28;20025;-65
2023/03/11 10:35:17;;;;;;;5.70;3.17;;;;;;;1.72;79.94;100212.88;4996966;28;20037;-62
2023/03/11 10:38:10;;;;;;;7.38;3.22;;;;;;;1.78;78.85;100223.03;4994594;28;20126;-64
2023/03/11 10:40:39;;;;;;;4.15;2.80;;;;;;;1.88;79.67;100223.63;5002301;28;20385;-61
2023/03/11 10:43:12;;;;;;;6.00;3.78;;;;;;;1.98;79.51;100244.97;5006338;28;20492;-59
2023/03/11 10:45:42;;;;;;;5.53;3.20;;;;;;;2.03;78.58;100243.09;5000532;28;20041;-64
2023/03/11 10:48:16;;;;;;;7.05;3.38;;;;;;;2.05;77.65;100220.50;5003236;28;20053;-57
2023/03/11 10:51:10;;;;;;;5.20;2.78;;;;;;;1.96;73.03;100237.22;5004084;28;20038;-61
2023/03/11 10:53:47;;;;;;;5.32;3.00;;;;;;;2.11;77.11;100267.06;5005063;28;20362;-64
2023/03/11 10:56:35;;;;;;;7.07;3.85;;;;;;;2.21;76.61;100240.81;4989231;28;20053;-60
2023/03/11 10:59:03;;;;;;;15.70;5.60;;;;;;;2.23;76.75;100239.88;5001927;28;20041;-64
2023/03/11 11:01:29;;;;;;;5.57;2.97;;;;;;;2.24;75.01;100246.78;4996110;28;20057;-63
2023/03/11 11:03:57;;;;;;;6.38;2.95;;;;;;;2.27;75.30;100249.25;4998874;28;20154;-63
2023/03/11 11:06:25;;;;;;;7.13;3.20;;;;;;;2.28;75.34;100232.78;4999898;28;20489;-65
2023/03/11 11:09:23;;;;;;;8.02;3.30;;;;;;;2.48;76.56;100248.63;4997259;28;20030;-59
2023/03/11 11:12:05;;;;;;;6.18;2.97;;;;;;;2.48;76.53;100233.06;4978099;28;20070;-64
2023/03/11 11:14:49;;;;;;;9.63;3.50;;;;;;;2.43;75.78;100253.94;4996672;28;20036;-62
2023/03/11 11:17:31;;;;;;;6.45;3.42;;;;;;;2.47;77.18;100250.38;5004349;28;20041;-60
2023/03/11 11:20:11;;;;;;;7.25;4.25;;;;;;;2.48;76.16;100251.25;4990816;28;20022;-59
2023/03/11 11:22:38;;;;;;;5.60;2.90;;;;;;;2.46;75.65;100243.47;5001477;28;20489;-64
2023/03/11 11:25:28;;;;;;;9.23;3.55;;;;;;;2.44;75.81;100242.66;4995909;28;20044;-59
2023/03/11 11:27:56;;;;;;;6.43;3.35;;;;;;;2.47;76.45;100246.94;5001731;28;20022;-62
2023/03/11 11:30:22;;;;;;;9.88;2.97;;;;;;;2.45;75.94;100246.97;5000504;28;20033;-60
2023/03/11 11:32:48;;;;;;;5.25;3.28;;;;;;;2.50;76.22;100247.69;4984389;28;20050;-66
2023/03/11 11:35:18;;;;;;;3.63;2.53;;;;;;;2.50;74.27;100272.78;4986277;28;20033;-60
2023/03/11 11:37:53;;;;;;;5.00;2.20;;;;;;;2.46;72.10;100245.25;4996360;28;20447;-64
2023/03/11 11:40:25;;;;;;;5.88;2.85;;;;;;;2.53;73.51;100267.50;5007901;28;20065;-65